createdAt,value
2017-12-28T00:01:53.531Z,97064.55
2017-12-28T00:04:19.809Z,97066.31
2017-12-28T00:06:46.845Z,97072.03
2017-12-28T00:09:13.875Z,97062.41
2017-12-28T00:11:40.151Z,97065.67
2017-12-28T00:14:06.583Z,97069.27
2017-12-28T00:16:32.885Z,97075.04
2017-12-28T00:18:59.964Z,97068.11
2017-12-28T00:21:26.287Z,97067.12
2017-12-28T00:23:53.358Z,97072.98
2017-12-28T00:26:19.614Z,97077.23
2017-12-28T00:28:45.914Z,97077.23
2017-12-28T00:31:12.236Z,97072.36
2017-12-28T00:33:38.550Z,97072.36
2017-12-28T00:36:05.598Z,97078.62
2017-12-28T00:38:32.627Z,97074.14
2017-12-28T00:40:58.915Z,97075.04
2017-12-28T00:43:25.192Z,97071.78
2017-12-28T00:45:51.539Z,97077.94
2017-12-28T00:48:17.850Z,97080.39
2017-12-28T00:50:44.118Z,97081.11
2017-12-28T00:53:10.443Z,97077.50
2017-12-28T00:55:36.736Z,97081.25
2017-12-28T00:58:03.049Z,97080.06
2017-12-28T01:00:30.047Z,97085.49
2017-12-28T01:02:56.357Z,97080.47
2017-12-28T01:05:23.439Z,97084.94
2017-12-28T01:07:49.716Z,97084.50
2017-12-28T01:10:16.159Z,97093.05
2017-12-28T01:12:42.485Z,97091.67
2017-12-28T01:15:08.838Z,97092.33
2017-12-28T01:17:35.854Z,97099.58
2017-12-28T01:20:02.202Z,97090.08
2017-12-28T01:22:28.495Z,97095.05
2017-12-28T01:24:54.780Z,97098.30
2017-12-28T01:27:21.074Z,97091.95
2017-12-28T01:29:47.393Z,97100.44
2017-12-28T01:32:13.748Z,97106.23
2017-12-28T01:34:40.054Z,97104.41
2017-12-28T01:37:06.332Z,97100.50
2017-12-28T01:39:33.474Z,97091.95
2017-12-28T01:42:00.765Z,97091.06
2017-12-28T01:44:27.052Z,97089.77
2017-12-28T01:46:54.061Z,97093.31
2017-12-28T01:49:20.341Z,97099.89
2017-12-28T01:51:47.383Z,97106.25
2017-12-28T01:54:14.415Z,97099.52
2017-12-28T01:56:40.720Z,97089.80
2017-12-28T01:59:06.983Z,97080.45
2017-12-28T02:01:33.249Z,97072.63
2017-12-28T02:03:59.542Z,97068.70
2017-12-28T02:06:26.569Z,97068.92
2017-12-28T02:08:52.876Z,97071.78
2017-12-28T02:11:19.143Z,97067.88
2017-12-28T02:13:45.471Z,97061.86
2017-12-28T02:16:11.724Z,97058.34
2017-12-28T02:18:38.753Z,97057.36
2017-12-28T02:21:05.012Z,97059.48
2017-12-28T02:23:32.044Z,97055.50
2017-12-28T02:25:59.070Z,97049.00
2017-12-28T02:28:25.314Z,97037.20
2017-12-28T02:30:51.612Z,97041.27
2017-12-28T02:33:17.903Z,97047.55
2017-12-28T02:35:44.160Z,97056.24
2017-12-28T02:38:10.466Z,97060.08
2017-12-28T02:40:36.752Z,97057.64
2017-12-28T02:43:03.094Z,97071.63
2017-12-28T02:45:29.319Z,97076.50
2017-12-28T02:47:55.643Z,97077.48
2017-12-28T02:50:21.939Z,97081.87
2017-12-28T02:52:48.195Z,97078.64
2017-12-28T02:55:14.537Z,97077.59
2017-12-28T02:57:40.819Z,97077.73
2017-12-28T03:00:07.075Z,97080.89
2017-12-28T03:02:33.389Z,97079.20
2017-12-28T03:04:59.743Z,97083.17
2017-12-28T03:07:26.027Z,97084.06
2017-12-28T03:09:52.265Z,97087.64
2017-12-28T03:12:18.539Z,97086.20
2017-12-28T03:14:44.827Z,97090.09
2017-12-28T03:17:11.056Z,97085.62
2017-12-28T03:19:37.387Z,97078.79
2017-12-28T03:22:03.645Z,97077.97
2017-12-28T03:24:29.951Z,97076.36
2017-12-28T03:26:56.348Z,97085.47
2017-12-28T03:29:23.366Z,97085.94
2017-12-28T03:31:49.694Z,97094.55
2017-12-28T03:34:15.973Z,97083.71
2017-12-28T03:36:42.266Z,97086.44
2017-12-28T03:39:08.586Z,97079.11
2017-12-28T03:41:34.830Z,97085.13
2017-12-28T03:44:01.152Z,97091.53
2017-12-28T03:46:27.458Z,97092.64
2017-12-28T03:48:53.960Z,97089.03
2017-12-28T03:51:20.256Z,97086.51
2017-12-28T03:53:46.506Z,97100.13
2017-12-28T03:56:13.557Z,97104.17
2017-12-28T03:58:40.573Z,97100.16
2017-12-28T04:01:06.835Z,97097.01
2017-12-28T04:03:33.835Z,97099.94
2017-12-28T04:06:00.099Z,97103.53
2017-12-28T04:08:27.081Z,97104.40
2017-12-28T04:10:53.349Z,97107.82
2017-12-28T04:13:19.611Z,97114.91
2017-12-28T04:15:46.593Z,97114.59
2017-12-28T04:18:12.882Z,97126.47
2017-12-28T04:20:39.134Z,97131.27
2017-12-28T04:23:06.155Z,97124.62
2017-12-28T04:25:33.184Z,97122.11
2017-12-28T04:27:59.441Z,97121.76
2017-12-28T04:30:26.472Z,97124.36
2017-12-28T04:32:52.738Z,97122.55
2017-12-28T04:35:19.760Z,97129.58
2017-12-28T04:37:45.994Z,97131.44
2017-12-28T04:40:13.040Z,97132.69
2017-12-28T04:42:40.122Z,97129.23
2017-12-28T04:45:06.451Z,97132.08
2017-12-28T04:47:32.670Z,97134.42
2017-12-28T04:49:58.966Z,97138.66
2017-12-28T04:52:25.253Z,97136.96
2017-12-28T04:54:51.612Z,97144.42
2017-12-28T04:57:17.881Z,97147.02
2017-12-28T04:59:44.873Z,97136.82
2017-12-28T05:02:11.175Z,97142.14
2017-12-28T05:04:37.474Z,97150.72
2017-12-28T05:07:04.521Z,97151.19
2017-12-28T05:09:30.771Z,97152.48
2017-12-28T05:11:57.823Z,97159.44
2017-12-28T05:14:24.138Z,97167.16
2017-12-28T05:16:51.203Z,97167.58
2017-12-28T05:19:17.447Z,97166.54
2017-12-28T05:21:43.905Z,97173.16
2017-12-28T05:24:10.184Z,97181.86
2017-12-28T05:26:37.187Z,97180.78
2017-12-28T05:29:03.529Z,97179.27
2017-12-28T05:31:29.816Z,97178.26
2017-12-28T05:33:56.252Z,97179.23
2017-12-28T05:36:22.532Z,97175.61
2017-12-28T05:38:48.829Z,97183.50
2017-12-28T05:41:15.146Z,97185.69
2017-12-28T05:43:41.438Z,97189.15
2017-12-28T05:46:07.750Z,97186.95
2017-12-28T05:48:34.132Z,97192.61
2017-12-28T05:51:00.401Z,97189.00
2017-12-28T05:53:26.659Z,97189.15
2017-12-28T05:55:53.749Z,97197.88
2017-12-28T05:58:20.038Z,97205.27
2017-12-28T06:00:47.101Z,97203.77
2017-12-28T06:03:14.134Z,97209.61
2017-12-28T06:05:41.203Z,97209.65
2017-12-28T06:08:08.247Z,97214.44
2017-12-28T06:10:35.332Z,97214.95
2017-12-28T06:13:01.592Z,97215.38
2017-12-28T06:15:27.947Z,97206.89
2017-12-28T06:17:55.022Z,97208.53
2017-12-28T06:20:21.328Z,97215.09
2017-12-28T06:22:48.344Z,97220.70
2017-12-28T06:25:14.680Z,97219.91
2017-12-28T06:27:40.942Z,97224.11
2017-12-28T06:30:07.994Z,97223.72
2017-12-28T06:32:35.000Z,97232.75
2017-12-28T06:35:01.289Z,97241.06
2017-12-28T06:37:27.637Z,97232.95
2017-12-28T06:39:53.943Z,97240.92
2017-12-28T06:42:20.174Z,97238.97
2017-12-28T06:44:46.457Z,97244.52
2017-12-28T06:47:12.737Z,97246.23
2017-12-28T06:49:39.041Z,97242.28
2017-12-28T06:52:05.347Z,97247.36
2017-12-28T06:54:31.633Z,97247.23
2017-12-28T06:56:57.931Z,97248.44
2017-12-28T06:59:24.967Z,97251.69
2017-12-28T07:01:51.235Z,97253.98
2017-12-28T07:04:17.565Z,97247.89
2017-12-28T07:06:43.811Z,97250.42
2017-12-28T07:09:10.088Z,97250.46
2017-12-28T07:11:37.133Z,97259.31
2017-12-28T07:14:03.410Z,97266.32
2017-12-28T07:16:29.648Z,97269.72
2017-12-28T07:18:55.928Z,97255.86
2017-12-28T07:21:22.200Z,97261.83
2017-12-28T07:23:51.881Z,97267.58
2017-12-28T07:26:18.181Z,97268.12
2017-12-28T07:28:44.443Z,97271.84
2017-12-28T07:31:17.306Z,97277.70
2017-12-28T07:33:43.732Z,97280.96
2017-12-28T07:36:09.971Z,97273.59
2017-12-28T07:38:36.224Z,97287.69
2017-12-28T07:41:03.300Z,97285.70
2017-12-28T07:43:29.634Z,97283.25
2017-12-28T07:45:56.056Z,97284.41
2017-12-28T07:48:22.323Z,97285.27
2017-12-28T07:50:48.620Z,97292.95
2017-12-28T07:53:14.922Z,97294.77
2017-12-28T07:55:41.924Z,97301.13
2017-12-28T07:58:08.196Z,97302.84
2017-12-28T08:00:35.208Z,97300.31
2017-12-28T08:03:01.509Z,97301.80
2017-12-28T08:05:34.777Z,97307.90
2017-12-28T08:08:01.796Z,97314.59
2017-12-28T08:10:28.072Z,97320.86
2017-12-28T08:12:54.338Z,97327.77
2017-12-28T08:15:20.600Z,97328.20
2017-12-28T08:17:47.631Z,97327.57
2017-12-28T08:20:13.879Z,97330.08
2017-12-28T08:22:40.918Z,97313.94
2017-12-28T08:25:07.195Z,97314.59
2017-12-28T08:27:33.472Z,97309.85
2017-12-28T08:29:59.708Z,97320.28
2017-12-28T08:32:26.011Z,97321.28
2017-12-28T08:34:52.315Z,97335.06
2017-12-28T08:37:18.606Z,97329.33
2017-12-28T08:39:45.738Z,97340.45
2017-12-28T08:42:12.050Z,97353.05
2017-12-28T08:44:38.339Z,97352.20
2017-12-28T08:47:04.649Z,97369.27
2017-12-28T08:49:38.744Z,97377.81
2017-12-28T08:52:05.099Z,97385.95
2017-12-28T08:54:32.205Z,97395.31
2017-12-28T08:56:58.510Z,97400.95
2017-12-28T08:59:24.818Z,97403.80
2017-12-28T09:01:51.067Z,97409.27
2017-12-28T09:04:17.381Z,97422.84
2017-12-28T09:06:43.675Z,97429.22
2017-12-28T09:09:09.917Z,97433.54
2017-12-28T09:11:36.252Z,97439.83
2017-12-28T09:14:03.322Z,97439.25
2017-12-28T09:16:29.633Z,97454.27
2017-12-28T09:18:56.681Z,97449.69
2017-12-28T09:21:23.705Z,97463.05
2017-12-28T09:23:49.996Z,97462.64
2017-12-28T09:26:18.607Z,97465.47
2017-12-28T09:28:45.668Z,97454.47
2017-12-28T09:31:11.900Z,97463.91
2017-12-28T09:33:38.192Z,97481.86
2017-12-28T09:36:04.479Z,97464.35
2017-12-28T09:38:31.450Z,97470.67
2017-12-28T09:40:57.770Z,97487.92
2017-12-28T09:43:24.804Z,97483.70
2017-12-28T09:45:51.851Z,97485.82
2017-12-28T09:48:18.851Z,97478.51
2017-12-28T09:50:45.221Z,97489.77
2017-12-28T09:53:11.532Z,97483.08
2017-12-28T09:55:44.686Z,97476.98
2017-12-28T09:58:10.944Z,97482.67
2017-12-28T10:00:37.253Z,97495.31
2017-12-28T10:03:03.562Z,97498.08
2017-12-28T10:05:30.568Z,97510.66
2017-12-28T10:07:56.904Z,97503.22
2017-12-28T10:10:23.187Z,97509.20
2017-12-28T10:12:49.516Z,97515.94
2017-12-28T10:15:15.829Z,97513.82
2017-12-28T10:17:42.934Z,97516.36
2017-12-28T10:20:09.268Z,97519.04
2017-12-28T10:22:35.559Z,97537.25
2017-12-28T10:25:01.825Z,97520.62
2017-12-28T10:27:28.149Z,97531.37
2017-12-28T10:29:54.461Z,97533.39
2017-12-28T10:32:20.791Z,97530.61
2017-12-28T10:34:47.123Z,97537.25
2017-12-28T10:37:13.401Z,97536.56
2017-12-28T10:39:39.707Z,97551.45
2017-12-28T10:42:05.989Z,97552.51
2017-12-28T10:44:32.288Z,97555.09
2017-12-28T10:46:58.600Z,97549.75
2017-12-28T10:49:25.086Z,97558.45
2017-12-28T10:51:51.361Z,97560.88
2017-12-28T10:54:17.675Z,97564.42
2017-12-28T10:56:43.935Z,97563.02
2017-12-28T10:59:11.110Z,97568.06
2017-12-28T11:01:38.124Z,97573.52
2017-12-28T11:04:04.408Z,97577.67
2017-12-28T11:06:30.646Z,97580.51
2017-12-28T11:08:56.882Z,97578.20
2017-12-28T11:11:23.170Z,97585.17
2017-12-28T11:13:49.484Z,97582.39
2017-12-28T11:16:15.784Z,97579.70
2017-12-28T11:18:42.043Z,97588.78
2017-12-28T11:21:08.345Z,97590.03
2017-12-28T11:23:34.605Z,97593.52
2017-12-28T11:26:00.896Z,97595.93
2017-12-28T11:28:27.138Z,97597.46
2017-12-28T11:30:53.391Z,97596.99
2017-12-28T11:33:19.691Z,97599.73
2017-12-28T11:35:45.983Z,97601.37
2017-12-28T11:38:12.991Z,97610.52
2017-12-28T11:40:39.283Z,97606.27
2017-12-28T11:43:05.585Z,97606.05
2017-12-28T11:45:32.603Z,97615.02
2017-12-28T11:47:58.891Z,97621.50
2017-12-28T11:50:31.401Z,97614.14
2017-12-28T11:53:03.857Z,97619.34
2017-12-28T11:55:30.967Z,97617.84
2017-12-28T11:57:58.011Z,97619.77
2017-12-28T12:00:26.897Z,97621.64
2017-12-28T12:03:00.193Z,97637.58
2017-12-28T12:05:27.303Z,97628.00
2017-12-28T12:07:53.593Z,97650.80
2017-12-28T12:10:21.771Z,97644.96
2017-12-28T12:12:48.070Z,97643.22
2017-12-28T12:15:14.395Z,97657.80
2017-12-28T12:17:40.680Z,97674.88
2017-12-28T12:20:06.964Z,97670.72
2017-12-28T12:22:33.227Z,97677.33
2017-12-28T12:24:59.550Z,97671.88
2017-12-28T12:27:25.818Z,97669.05
2017-12-28T12:29:52.130Z,97673.77
2017-12-28T12:32:18.387Z,97674.09
2017-12-28T12:34:44.676Z,97673.81
2017-12-28T12:37:10.992Z,97682.60
2017-12-28T12:39:37.966Z,97691.47
2017-12-28T12:42:04.278Z,97700.19
2017-12-28T12:44:30.550Z,97711.89
2017-12-28T12:46:56.798Z,97712.03
2017-12-28T12:49:23.097Z,97713.63
2017-12-28T12:51:49.382Z,97722.67
2017-12-28T12:54:17.347Z,97721.48
2017-12-28T12:56:44.351Z,97729.69
2017-12-28T12:59:10.585Z,97727.14
2017-12-28T13:01:36.869Z,97734.39
2017-12-28T13:04:03.186Z,97741.66
2017-12-28T13:06:30.229Z,97745.29
2017-12-28T13:08:57.312Z,97746.23
2017-12-28T13:11:24.313Z,97741.18
2017-12-28T13:13:50.600Z,97745.33
2017-12-28T13:16:16.918Z,97750.73
2017-12-28T13:18:43.222Z,97756.97
2017-12-28T13:21:10.230Z,97774.25
2017-12-28T13:23:36.548Z,97780.97
2017-12-28T13:26:02.812Z,97769.73
2017-12-28T13:28:29.828Z,97776.19
2017-12-28T13:30:56.105Z,97781.74
2017-12-28T13:33:23.091Z,97782.13
2017-12-28T13:35:49.408Z,97794.56
2017-12-28T13:38:15.677Z,97773.82
2017-12-28T13:40:41.983Z,97779.92
2017-12-28T13:43:08.280Z,97791.97
2017-12-28T13:45:35.357Z,97783.21
2017-12-28T13:48:01.651Z,97791.72
2017-12-28T13:50:28.715Z,97798.55
2017-12-28T13:52:55.033Z,97802.67
2017-12-28T13:55:22.064Z,97818.30
2017-12-28T13:57:48.343Z,97834.20
2017-12-28T14:00:14.673Z,97853.77
2017-12-28T14:02:40.910Z,97858.61
2017-12-28T14:05:07.204Z,97860.26
2017-12-28T14:07:35.044Z,97866.73
2017-12-28T14:10:01.366Z,97870.50
2017-12-28T14:12:27.696Z,97888.34
2017-12-28T14:14:54.018Z,97891.48
2017-12-28T14:17:20.360Z,97895.31
2017-12-28T14:19:46.698Z,97892.05
2017-12-28T14:22:12.968Z,97895.66
2017-12-28T14:24:40.004Z,97891.94
2017-12-28T14:27:07.025Z,97894.84
2017-12-28T14:29:33.284Z,97906.30
2017-12-28T14:32:00.303Z,97912.30
2017-12-28T14:34:26.562Z,97936.81
2017-12-28T14:36:53.567Z,97929.51
2017-12-28T14:39:19.855Z,97930.39
2017-12-28T14:41:46.119Z,97919.30
2017-12-28T14:44:12.441Z,97929.73
2017-12-28T14:46:38.739Z,97923.20
2017-12-28T14:49:05.011Z,97913.15
2017-12-28T14:51:31.307Z,97913.20
2017-12-28T14:53:57.644Z,97932.34
2017-12-28T14:56:23.906Z,97931.36
2017-12-28T14:58:50.232Z,97938.34
2017-12-28T15:01:16.483Z,97943.24
2017-12-28T15:03:42.794Z,97943.83
2017-12-28T15:06:09.088Z,97952.70
2017-12-28T15:08:35.368Z,97965.17
2017-12-28T15:11:01.701Z,97956.89
2017-12-28T15:13:28.018Z,97968.89
2017-12-28T15:15:54.328Z,97973.16
2017-12-28T15:18:20.613Z,97971.27
2017-12-28T15:20:47.636Z,97990.24
2017-12-28T15:23:13.976Z,97992.43
2017-12-28T15:25:40.994Z,97996.47
2017-12-28T15:28:07.300Z,98000.45
2017-12-28T15:30:33.577Z,98004.43
2017-12-28T15:32:59.857Z,98012.95
2017-12-28T15:35:26.143Z,98021.71
2017-12-28T15:37:52.427Z,98029.38
2017-12-28T15:40:18.781Z,98030.65
2017-12-28T15:42:45.091Z,98024.49
2017-12-28T15:45:11.391Z,98033.16
2017-12-28T15:47:38.451Z,98045.11
2017-12-28T15:50:04.747Z,98056.60
2017-12-28T15:52:31.021Z,98049.92
2017-12-28T15:54:57.309Z,98065.79
2017-12-28T15:57:23.639Z,98061.37
2017-12-28T15:59:49.895Z,98072.11
2017-12-28T16:02:16.981Z,98061.72
2017-12-28T16:04:43.279Z,98077.73
2017-12-28T16:07:10.322Z,98080.89
2017-12-28T16:09:37.422Z,98080.01
2017-12-28T16:12:03.720Z,98096.87
2017-12-28T16:14:30.054Z,98091.19
2017-12-28T16:16:56.360Z,98095.02
2017-12-28T16:19:23.422Z,98100.66
2017-12-28T16:21:49.786Z,98098.45
2017-12-28T16:24:16.212Z,98103.63
2017-12-28T16:26:42.525Z,98105.45
2017-12-28T16:29:08.772Z,98098.19
2017-12-28T16:31:35.173Z,98107.38
2017-12-28T16:34:02.189Z,98111.98
2017-12-28T16:36:28.521Z,98122.23
2017-12-28T16:38:55.549Z,98114.75
2017-12-28T16:41:21.805Z,98131.30
2017-12-28T16:43:48.135Z,98131.09
2017-12-28T16:46:14.463Z,98139.33
2017-12-28T16:48:41.499Z,98143.27
2017-12-28T16:51:07.825Z,98147.27
2017-12-28T16:53:34.121Z,98157.78
2017-12-28T16:56:00.457Z,98158.71
2017-12-28T16:58:26.728Z,98156.70
2017-12-28T17:00:53.051Z,98157.64
2017-12-28T17:03:19.384Z,98169.50
2017-12-28T17:05:45.694Z,98173.86
2017-12-28T17:08:11.971Z,98179.82
2017-12-28T17:10:39.026Z,98185.06
2017-12-28T17:13:06.742Z,98185.53
2017-12-28T17:15:33.100Z,98197.55
2017-12-28T17:17:59.399Z,98202.55
2017-12-28T17:20:25.680Z,98208.51
2017-12-28T17:22:52.687Z,98210.70
2017-12-28T17:25:19.188Z,98207.05
2017-12-28T17:27:45.465Z,98217.06
2017-12-28T17:30:11.759Z,98215.46
2017-12-28T17:32:38.108Z,98221.42
2017-12-28T17:35:04.427Z,98224.54
2017-12-28T17:37:30.689Z,98228.21
2017-12-28T17:39:56.944Z,98232.68
2017-12-28T17:42:23.233Z,98237.03
2017-12-28T17:44:49.553Z,98235.52
2017-12-28T17:47:15.870Z,98250.41
2017-12-28T17:49:42.173Z,98245.64
2017-12-28T17:52:09.225Z,98245.42
2017-12-28T17:54:35.680Z,98255.42
2017-12-28T17:57:01.931Z,98253.70
2017-12-28T17:59:28.248Z,98251.55
2017-12-28T18:01:54.563Z,98257.83
2017-12-28T18:04:20.913Z,98255.78
2017-12-28T18:06:47.250Z,98255.78
2017-12-28T18:09:13.542Z,98258.97
2017-12-28T18:11:40.596Z,98254.37
2017-12-28T18:14:06.960Z,98252.66
2017-12-28T18:16:33.236Z,98252.23
2017-12-28T18:18:59.561Z,98259.50
2017-12-28T18:21:26.304Z,98261.38
2017-12-28T18:23:53.348Z,98258.67
2017-12-28T18:26:19.629Z,98264.80
2017-12-28T18:28:45.982Z,98273.33
2017-12-28T18:31:12.288Z,98272.81
2017-12-28T18:33:38.518Z,98275.34
2017-12-28T18:36:04.889Z,98283.50
2017-12-28T18:38:31.220Z,98276.53
2017-12-28T18:40:57.484Z,98288.18
2017-12-28T18:43:24.569Z,98280.05
2017-12-28T18:45:50.824Z,98289.94
2017-12-28T18:48:17.209Z,98303.84
2017-12-28T18:50:43.504Z,98300.27
2017-12-28T18:53:10.081Z,98307.09
2017-12-28T18:55:36.363Z,98309.03
2017-12-28T18:58:02.675Z,98312.45
2017-12-28T19:00:29.611Z,98319.00
2017-12-28T19:02:55.921Z,98307.98
2017-12-28T19:05:22.249Z,98314.00
2017-12-28T19:07:48.651Z,98335.11
2017-12-28T19:10:14.916Z,98334.44
2017-12-28T19:12:41.291Z,98333.20
2017-12-28T19:15:07.598Z,98340.31
2017-12-28T19:17:33.962Z,98334.60
2017-12-28T19:20:00.553Z,98346.27
2017-12-28T19:22:26.908Z,98349.17
2017-12-28T19:24:53.212Z,98348.34
2017-12-28T19:27:19.588Z,98364.59
2017-12-28T19:29:45.923Z,98354.92
2017-12-28T19:32:12.272Z,98364.06
2017-12-28T19:34:39.331Z,98366.30
2017-12-28T19:37:06.424Z,98369.01
2017-12-28T19:39:32.715Z,98378.39
2017-12-28T19:41:59.009Z,98375.99
2017-12-28T19:44:25.385Z,98373.91
2017-12-28T19:46:51.694Z,98385.41
2017-12-28T19:49:18.828Z,98379.77
2017-12-28T19:51:45.209Z,98385.09
2017-12-28T19:54:11.600Z,98391.72
2017-12-28T19:56:38.134Z,98378.33
2017-12-28T19:59:04.492Z,98381.20
2017-12-28T20:01:30.822Z,98396.59
2017-12-28T20:03:57.876Z,98392.24
2017-12-28T20:06:33.003Z,98415.72
2017-12-28T20:09:00.060Z,98424.63
2017-12-28T20:11:26.748Z,98432.19
2017-12-28T20:13:53.060Z,98417.34
2017-12-28T20:16:19.422Z,98432.27
2017-12-28T20:18:46.226Z,98439.36
2017-12-28T20:21:12.634Z,98446.56
2017-12-28T20:23:40.762Z,98465.95
2017-12-28T20:26:07.096Z,98459.39
2017-12-28T20:28:33.364Z,98464.94
2017-12-28T20:31:00.414Z,98477.22
2017-12-28T20:33:26.730Z,98471.55
2017-12-28T20:35:53.022Z,98472.62
2017-12-28T20:38:19.371Z,98478.14
2017-12-28T20:40:45.759Z,98476.52
2017-12-28T20:43:12.081Z,98492.84
2017-12-28T20:45:38.403Z,98473.64
2017-12-28T20:48:05.518Z,98485.07
2017-12-28T20:50:31.843Z,98488.16
2017-12-28T20:52:58.203Z,98494.54
2017-12-28T20:55:25.273Z,98498.08
2017-12-28T20:57:51.553Z,98501.25
2017-12-28T21:00:17.884Z,98500.21
2017-12-28T21:02:44.267Z,98507.35
2017-12-28T21:05:10.597Z,98513.64
2017-12-28T21:07:36.872Z,98509.34
2017-12-28T21:10:03.166Z,98512.15
2017-12-28T21:12:29.539Z,98527.07
2017-12-28T21:14:55.818Z,98522.80
2017-12-28T21:17:22.084Z,98525.28
2017-12-28T21:19:48.462Z,98523.55
2017-12-28T21:22:15.542Z,98532.47
2017-12-28T21:24:41.840Z,98542.02
2017-12-28T21:27:08.884Z,98547.22
2017-12-28T21:29:35.196Z,98552.37
2017-12-28T21:32:01.486Z,98562.44
2017-12-28T21:34:27.855Z,98569.66
2017-12-28T21:36:54.143Z,98569.41
2017-12-28T21:39:20.419Z,98567.42
2017-12-28T21:41:46.737Z,98571.15
2017-12-28T21:44:13.038Z,98571.48
2017-12-28T21:46:39.325Z,98572.98
2017-12-28T21:49:05.763Z,98572.48
2017-12-28T21:51:32.772Z,98577.76
2017-12-28T21:53:59.111Z,98587.39
2017-12-28T21:56:25.441Z,98597.58
2017-12-28T21:58:51.743Z,98600.51
2017-12-28T22:01:17.999Z,98615.45
2017-12-28T22:03:44.427Z,98615.05
2017-12-28T22:06:10.725Z,98620.73
2017-12-28T22:08:37.216Z,98627.06
2017-12-28T22:11:03.492Z,98624.94
2017-12-28T22:13:29.722Z,98628.45
2017-12-28T22:15:56.041Z,98629.48
2017-12-28T22:18:23.072Z,98628.45
2017-12-28T22:20:50.086Z,98631.73
2017-12-28T22:23:16.484Z,98633.99
2017-12-28T22:25:42.764Z,98637.25
2017-12-28T22:28:09.136Z,98635.63
2017-12-28T22:30:35.426Z,98642.76
2017-12-28T22:33:01.734Z,98640.00
2017-12-28T22:35:28.026Z,98645.55
2017-12-28T22:37:54.276Z,98640.66
2017-12-28T22:40:20.607Z,98644.16
2017-12-28T22:42:46.888Z,98647.36
2017-12-28T22:45:13.166Z,98656.55
2017-12-28T22:47:39.478Z,98641.88
2017-12-28T22:50:05.802Z,98645.55
2017-12-28T22:52:32.134Z,98645.68
2017-12-28T22:54:58.384Z,98646.72
2017-12-28T22:57:24.732Z,98655.81
2017-12-28T22:59:51.021Z,98649.43
2017-12-28T23:02:18.056Z,98651.43
2017-12-28T23:04:45.078Z,98655.19
2017-12-28T23:07:12.125Z,98656.06
2017-12-28T23:09:38.435Z,98653.69
2017-12-28T23:12:04.755Z,98656.77
2017-12-28T23:14:31.058Z,98652.14
2017-12-28T23:16:57.413Z,98658.06
2017-12-28T23:19:23.687Z,98657.52
2017-12-28T23:21:50.019Z,98657.02
2017-12-28T23:24:16.343Z,98651.14
2017-12-28T23:26:42.691Z,98642.34
2017-12-28T23:29:08.966Z,98640.13
2017-12-28T23:31:35.305Z,98649.81
2017-12-28T23:34:01.605Z,98648.59
2017-12-28T23:36:28.629Z,98651.22
2017-12-28T23:38:54.903Z,98642.26
2017-12-28T23:41:21.194Z,98647.52
2017-12-28T23:43:48.598Z,98638.88
2017-12-28T23:46:14.860Z,98645.76
2017-12-28T23:48:41.146Z,98652.68
2017-12-28T23:51:07.460Z,98657.23
2017-12-28T23:53:34.499Z,98658.81
2017-12-28T23:56:01.546Z,98656.31
2017-12-28T23:58:28.606Z,98665.73
